Time;durP1;ratioP1;P1;durP2;ratioP2;P2;SDS_P1;SDS_P2;PMS_P1;PMS_P2;Temp;Humidity;BMP_temperature;BMP_pressure;BME280_temperature;BME280_humidity;BME280_pressure;Samples;Min_cycle;Max_cycle;Signal;HPM_P1;HPM_P2
2021/08/12 00:00:59;;;;;;;50.50;33.00;;;12.70;99.90;;;;;;5006687;28;20223;-77
2021/08/12 00:03:26;;;;;;;51.42;30.65;;;12.80;99.90;;;;;;5025115;28;20037;-76
2021/08/12 00:05:53;;;;;;;120.03;52.70;;;12.80;99.90;;;;;;5042020;28;20054;-79
2021/08/12 00:08:20;;;;;;;80.60;41.65;;;12.90;99.90;;;;;;5009453;28;20133;-78
2021/08/12 00:10:50;;;;;;;42.08;27.15;;;12.90;99.90;;;;;;5009011;28;20050;-78
2021/08/12 00:13:18;;;;;;;43.00;26.60;;;13.10;99.90;;;;;;5002347;28;20132;-79
2021/08/12 00:15:46;;;;;;;54.30;30.80;;;13.10;99.90;;;;;;5030755;28;20072;-78
2021/08/12 00:18:13;;;;;;;54.00;30.00;;;13.10;99.90;;;;;;5004010;28;20329;-79
2021/08/12 00:20:39;;;;;;;54.80;30.13;;;13.10;99.90;;;;;;4990978;28;20061;-78
2021/08/12 00:23:07;;;;;;;43.10;28.17;;;13.40;99.90;;;;;;4981966;28;20197;-79
2021/08/12 00:25:33;;;;;;;41.00;25.77;;;13.40;99.90;;;;;;5039275;28;20072;-78
2021/08/12 00:28:00;;;;;;;36.80;24.15;;;13.30;99.90;;;;;;5007032;28;20049;-78
2021/08/12 00:30:27;;;;;;;36.00;22.95;;;13.40;99.90;;;;;;5023403;28;20054;-78
2021/08/12 00:32:54;;;;;;;32.08;21.52;;;13.60;99.90;;;;;;5002306;28;20443;-78
2021/08/12 00:35:21;;;;;;;24.20;17.25;;;13.70;99.90;;;;;;4990784;28;20045;-79
2021/08/12 00:37:49;;;;;;;28.50;19.83;;;13.70;99.90;;;;;;4992238;28;20046;-78
2021/08/12 00:40:20;;;;;;;23.48;18.17;;;13.60;99.90;;;;;;5006801;28;20046;-79
2021/08/12 00:42:49;;;;;;;24.92;17.90;;;13.70;99.90;;;;;;4974402;28;20080;-78
2021/08/12 00:45:17;;;;;;;21.02;16.73;;;13.70;99.90;;;;;;4996370;28;20039;-78
2021/08/12 00:47:44;;;;;;;26.55;17.02;;;13.80;99.90;;;;;;5022918;28;20133;-78
2021/08/12 00:50:11;;;;;;;23.60;16.95;;;13.70;99.90;;;;;;5011974;28;20084;-78
2021/08/12 00:52:39;;;;;;;19.60;15.63;;;13.70;99.90;;;;;;5010296;28;20053;-79
2021/08/12 00:55:09;;;;;;;21.40;17.10;;;13.80;99.90;;;;;;4982885;28;20046;-81
2021/08/12 00:57:37;;;;;;;25.52;18.55;;;13.70;99.90;;;;;;4975448;28;20061;-77
2021/08/12 01:00:07;;;;;;;39.78;22.10;;;13.80;99.90;;;;;;4974966;28;20317;-80
2021/08/12 01:02:35;;;;;;;99.00;31.00;;;13.80;99.90;;;;;;5008622;28;20050;-78
2021/08/12 01:05:06;;;;;;;71.65;28.23;;;13.70;99.90;;;;;;4984969;28;20054;-79
2021/08/12 01:07:43;;;;;;;24.98;17.83;;;13.70;99.90;;;;;;4987709;28;20502;-78
2021/08/12 01:10:47;;;;;;;30.17;18.58;;;14.00;99.90;;;;;;4956663;28;20420;-79
2021/08/12 01:13:57;;;;;;;23.02;16.70;;;14.00;99.90;;;;;;4968261;28;20065;-79
2021/08/12 01:16:29;;;;;;;25.20;18.88;;;13.90;99.90;;;;;;5014025;28;20400;-78
2021/08/12 01:19:13;;;;;;;22.17;16.60;;;13.80;99.90;;;;;;5012908;28;20117;-78
2021/08/12 01:21:58;;;;;;;23.30;15.95;;;13.90;99.90;;;;;;5008419;28;20050;-78
2021/08/12 01:24:29;;;;;;;21.67;16.48;;;14.00;99.90;;;;;;4990692;28;20056;-78
2021/08/12 01:27:00;;;;;;;20.52;15.27;;;14.00;99.90;;;;;;5011336;28;20136;-79
2021/08/12 01:29:34;;;;;;;21.30;17.50;;;13.90;99.90;;;;;;5002310;28;20049;-77
2021/08/12 01:32:09;;;;;;;22.40;16.67;;;13.80;99.90;;;;;;4956541;28;20518;-78
2021/08/12 01:34:42;;;;;;;18.38;15.48;;;13.90;99.90;;;;;;4985114;28;20045;-77
2021/08/12 01:37:13;;;;;;;22.63;17.13;;;13.90;99.90;;;;;;5005412;28;20223;-78
2021/08/12 01:39:43;;;;;;;21.05;16.55;;;13.80;99.90;;;;;;5005945;28;20493;-78
2021/08/12 01:42:12;;;;;;;22.98;17.98;;;13.70;99.90;;;;;;5005843;28;20070;-79
2021/08/12 01:44:43;;;;;;;20.88;16.25;;;13.80;99.90;;;;;;5012856;28;20116;-78
2021/08/12 01:47:14;;;;;;;21.55;15.30;;;13.80;99.90;;;;;;4997164;28;20041;-78
2021/08/12 01:49:43;;;;;;;21.55;16.52;;;13.80;99.90;;;;;;5006382;28;20237;-77
2021/08/12 01:52:11;;;;;;;19.77;15.25;;;13.80;99.90;;;;;;4988443;28;20053;-78
2021/08/12 01:54:42;;;;;;;17.50;14.48;;;13.90;99.90;;;;;;4987895;28;20502;-78
2021/08/12 01:57:10;;;;;;;20.60;16.15;;;14.00;99.90;;;;;;4990090;28;20343;-78
2021/08/12 01:59:38;;;;;;;21.08;16.75;;;14.10;99.90;;;;;;4970303;28;20080;-78
2021/08/12 02:02:07;;;;;;;21.40;16.70;;;14.10;99.90;;;;;;4985016;28;20487;-78
2021/08/12 02:04:39;;;;;;;19.48;16.13;;;14.30;99.90;;;;;;4969349;28;20073;-78
2021/08/12 02:07:09;;;;;;;23.10;16.67;;;14.30;99.90;;;;;;4967691;28;20049;-77
2021/08/12 02:09:35;;;;;;;20.77;16.17;;;14.30;99.90;;;;;;4969792;28;20052;-77
2021/08/12 02:12:04;;;;;;;24.13;17.52;;;14.30;99.90;;;;;;4966237;28;20042;-78
2021/08/12 02:14:33;;;;;;;20.08;15.55;;;14.30;99.90;;;;;;4999426;28;20049;-76
2021/08/12 02:17:00;;;;;;;21.48;15.98;;;14.30;99.90;;;;;;4997556;28;20148;-78
2021/08/12 02:19:29;;;;;;;23.30;16.35;;;14.30;99.90;;;;;;5005312;28;20125;-77
2021/08/12 02:22:06;;;;;;;21.73;17.23;;;14.20;99.90;;;;;;4986951;28;20374;-78
2021/08/12 02:24:44;;;;;;;22.05;16.33;;;14.20;99.90;;;;;;4989688;28;20081;-77
2021/08/12 02:27:15;;;;;;;23.33;16.30;;;14.10;99.90;;;;;;4968782;28;20469;-77
2021/08/12 02:29:42;;;;;;;20.25;15.43;;;14.10;99.90;;;;;;4969070;28;20132;-78
2021/08/12 02:32:13;;;;;;;21.83;15.73;;;13.90;99.90;;;;;;4967928;28;20442;-78
2021/08/12 02:34:42;;;;;;;23.55;17.20;;;13.80;99.90;;;;;;4997528;28;20053;-77
2021/08/12 02:37:13;;;;;;;21.50;16.63;;;13.80;99.90;;;;;;5004610;28;20061;-78
2021/08/12 02:39:42;;;;;;;19.65;14.85;;;13.70;99.90;;;;;;5017660;28;20392;-78
2021/08/12 02:42:10;;;;;;;21.27;15.65;;;13.60;99.90;;;;;;5009576;28;20141;-78
2021/08/12 02:44:40;;;;;;;20.90;15.18;;;13.70;99.90;;;;;;4979071;28;20069;-78
2021/08/12 02:47:08;;;;;;;21.58;16.27;;;13.60;99.90;;;;;;4992697;28;20060;-78
2021/08/12 02:49:41;;;;;;;23.30;16.85;;;13.70;99.90;;;;;;5007459;28;20533;-78
2021/08/12 02:52:10;;;;;;;22.35;16.58;;;13.70;99.90;;;;;;5006783;28;20072;-79
2021/08/12 02:54:38;;;;;;;25.15;16.70;;;13.50;99.90;;;;;;5015609;28;20124;-80
2021/08/12 02:57:06;;;;;;;24.80;16.27;;;13.40;99.90;;;;;;5005358;28;20061;-79
2021/08/12 02:59:35;;;;;;;25.70;17.00;;;13.40;99.90;;;;;;4991054;28;20114;-78
2021/08/12 03:02:03;;;;;;;20.63;14.65;;;13.30;99.90;;;;;;5004832;28;20289;-77
2021/08/12 03:04:33;;;;;;;22.90;16.33;;;13.20;99.90;;;;;;5006076;28;20557;-78
2021/08/12 03:07:01;;;;;;;25.48;17.15;;;13.10;99.90;;;;;;5007898;28;20339;-77
2021/08/12 03:09:29;;;;;;;25.00;18.15;;;13.10;99.90;;;;;;5041093;28;20054;-77
2021/08/12 03:11:59;;;;;;;25.98;17.27;;;13.20;99.90;;;;;;5019572;28;20146;-77
2021/08/12 03:14:30;;;;;;;24.85;17.08;;;13.40;99.90;;;;;;5001318;28;20101;-77
2021/08/12 03:16:58;;;;;;;23.55;17.08;;;13.30;99.90;;;;;;4997459;28;20073;-79
2021/08/12 03:19:26;;;;;;;19.20;15.73;;;13.30;99.90;;;;;;4985306;28;20110;-78
2021/08/12 03:22:10;;;;;;;22.92;16.00;;;13.20;99.90;;;;;;4966748;28;20169;-78
2021/08/12 03:24:46;;;;;;;23.27;16.17;;;13.30;99.90;;;;;;5007518;28;20406;-77
2021/08/12 03:27:14;;;;;;;;;;;13.50;99.90;;;;;;5007175;28;20648;-78
2021/08/12 03:29:43;;;;;;;23.88;17.63;;;13.60;99.90;;;;;;4991729;28;20507;-78
2021/08/12 03:32:11;;;;;;;25.88;18.15;;;13.40;99.90;;;;;;4990570;28;20045;-79
2021/08/12 03:34:38;;;;;;;25.65;18.08;;;13.30;99.90;;;;;;5013808;28;20141;-79
2021/08/12 03:37:05;;;;;;;27.92;19.20;;;13.20;99.90;;;;;;4990512;28;20634;-78
2021/08/12 03:39:34;;;;;;;27.55;18.67;;;13.30;99.90;;;;;;5008208;28;20057;-79
2021/08/12 03:42:01;;;;;;;24.52;18.45;;;13.30;99.90;;;;;;4990205;28;20053;-77
2021/08/12 03:44:28;;;;;;;25.10;18.35;;;13.30;99.90;;;;;;4990787;28;20132;-78
2021/08/12 03:47:05;;;;;;;;;;;13.40;99.90;;;;;;5034637;28;20046;-78
2021/08/12 03:49:32;;;;;;;26.52;18.92;;;13.20;99.90;;;;;;5007082;28;20289;-78
2021/08/12 03:52:00;;;;;;;30.42;19.80;;;13.20;99.90;;;;;;5006878;28;20050;-78
2021/08/12 03:54:27;;;;;;;29.02;19.65;;;13.10;99.90;;;;;;4990977;28;20062;-77
2021/08/12 03:56:53;;;;;;;26.55;18.92;;;13.20;99.90;;;;;;4989310;28;20060;-79
2021/08/12 03:59:23;;;;;;;33.13;22.02;;;13.10;99.90;;;;;;4992564;28;20038;-77
2021/08/12 04:01:50;;;;;;;33.30;20.23;;;13.30;99.90;;;;;;4991521;28;20041;-78
2021/08/12 04:04:17;;;;;;;33.55;20.63;;;13.50;99.90;;;;;;4990135;28;20372;-78
2021/08/12 04:06:44;;;;;;;31.25;20.25;;;13.50;99.90;;;;;;5007429;28;20046;-79
2021/08/12 04:09:11;;;;;;;31.10;20.42;;;13.50;99.90;;;;;;4991333;28;20524;-79
2021/08/12 04:11:38;;;;;;;25.73;18.23;;;13.50;99.90;;;;;;4991441;28;20050;-79
2021/08/12 04:14:06;;;;;;;25.42;18.15;;;13.40;99.90;;;;;;5003609;28;20145;-79
2021/08/12 04:16:34;;;;;;;30.00;18.17;;;13.30;99.90;;;;;;5005779;28;20584;-79
2021/08/12 04:19:05;;;;;;;26.05;18.23;;;13.20;99.90;;;;;;5005319;28;20109;-78
2021/08/12 04:21:32;;;;;;;26.05;18.25;;;13.10;99.90;;;;;;5007552;28;20049;-78
2021/08/12 04:24:01;;;;;;;25.95;18.40;;;13.10;99.90;;;;;;5008700;28;20172;-77
2021/08/12 04:26:28;;;;;;;27.92;18.52;;;13.20;99.90;;;;;;4976541;28;20061;-79
2021/08/12 04:28:56;;;;;;;29.52;18.33;;;13.20;99.90;;;;;;4990705;28;20046;-78
2021/08/12 04:31:23;;;;;;;26.52;19.52;;;13.20;99.90;;;;;;5023654;28;20100;-78
2021/08/12 04:33:51;;;;;;;25.73;18.15;;;13.20;99.90;;;;;;5020378;28;20069;-79
2021/08/12 04:36:17;;;;;;;30.63;19.45;;;13.30;99.90;;;;;;4990506;28;20069;-79
2021/08/12 04:38:45;;;;;;;28.65;18.17;;;13.40;99.90;;;;;;5007914;28;20104;-78
2021/08/12 04:41:12;;;;;;;23.83;17.38;;;13.40;99.90;;;;;;4990230;28;20433;-79
2021/08/12 04:43:39;;;;;;;27.67;18.55;;;13.50;99.90;;;;;;5014452;28;20064;-79
2021/08/12 04:46:06;;;;;;;24.90;18.67;;;13.80;99.90;;;;;;5015248;28;20049;-80
2021/08/12 04:48:33;;;;;;;21.60;15.48;;;13.80;99.90;;;;;;4990184;28;20326;-79
2021/08/12 04:51:00;;;;;;;22.30;16.30;;;13.80;99.90;;;;;;4991145;28;20076;-79
2021/08/12 04:53:28;;;;;;;21.27;14.70;;;13.80;99.90;;;;;;5007321;28;20052;-79
2021/08/12 04:55:55;;;;;;;23.58;15.40;;;13.90;99.90;;;;;;5006651;28;20367;-81
2021/08/12 04:58:23;;;;;;;21.83;15.10;;;14.00;99.90;;;;;;5011208;28;20446;-81
2021/08/12 05:00:51;;;;;;;22.05;14.90;;;14.10;99.90;;;;;;5042030;28;20510;-81
2021/08/12 05:03:19;;;;;;;20.35;14.57;;;14.10;99.90;;;;;;5031498;28;20053;-81
2021/08/12 05:05:46;;;;;;;19.80;14.73;;;14.30;99.90;;;;;;5015039;28;20476;-81
2021/08/12 05:08:12;;;;;;;21.50;14.07;;;14.50;99.90;;;;;;5013891;28;20042;-80
2021/08/12 05:10:46;;;;;;;22.98;14.23;;;14.60;99.90;;;;;;4995136;28;20407;-80
2021/08/12 05:13:15;;;;;;;21.58;15.18;;;14.80;99.90;;;;;;5012791;28;20049;-82
2021/08/12 05:15:42;;;;;;;19.52;15.02;;;14.80;99.90;;;;;;5001045;28;20545;-79
2021/08/12 05:18:11;;;;;;;17.73;14.07;;;15.00;99.90;;;;;;5009452;28;20057;-81
2021/08/12 05:20:38;;;;;;;20.95;14.70;;;15.00;99.90;;;;;;4992940;28;20057;-80
2021/08/12 05:23:05;;;;;;;18.88;13.02;;;15.00;99.90;;;;;;5010846;28;20156;-80
2021/08/12 05:25:32;;;;;;;18.13;13.68;;;15.20;99.90;;;;;;5010481;28;20034;-80
2021/08/12 05:27:59;;;;;;;20.45;13.82;;;15.10;99.90;;;;;;4994378;28;20077;-80
2021/08/12 05:30:26;;;;;;;19.40;13.02;;;15.10;99.90;;;;;;4986221;28;20042;-81
2021/08/12 05:32:53;;;;;;;19.05;12.50;;;15.30;99.90;;;;;;5036792;28;20057;-81
2021/08/12 05:35:21;;;;;;;19.33;13.10;;;15.60;99.90;;;;;;4975984;28;20073;-81
2021/08/12 05:37:48;;;;;;;15.77;12.95;;;15.70;99.90;;;;;;4996320;28;20104;-81
2021/08/12 05:40:15;;;;;;;19.20;12.63;;;15.90;99.90;;;;;;5002348;28;20030;-81
2021/08/12 05:42:41;;;;;;;16.70;12.30;;;16.10;99.90;;;;;;5021214;28;20042;-81
2021/08/12 05:45:09;;;;;;;16.35;12.20;;;15.90;99.90;;;;;;5005961;28;20046;-80
2021/08/12 05:47:36;;;;;;;16.85;12.07;;;16.10;99.90;;;;;;4967880;28;20057;-80
2021/08/12 05:50:04;;;;;;;15.27;11.00;;;16.20;99.90;;;;;;5010727;28;20306;-80
2021/08/12 05:52:31;;;;;;;14.60;10.52;;;16.20;99.90;;;;;;4977079;28;20060;-80
2021/08/12 05:54:58;;;;;;;14.25;11.18;;;16.20;99.90;;;;;;4992306;28;20128;-80
2021/08/12 05:57:25;;;;;;;16.08;12.13;;;16.40;99.90;;;;;;4995656;28;20069;-80
2021/08/12 05:59:52;;;;;;;15.15;11.02;;;16.40;99.90;;;;;;4994328;28;20045;-80
2021/08/12 06:02:19;;;;;;;15.60;9.93;;;16.40;99.90;;;;;;5009206;28;20057;-81
2021/08/12 06:04:51;;;;;;;15.60;10.88;;;16.40;99.90;;;;;;5009609;28;20088;-80
2021/08/12 06:07:18;;;;;;;13.68;10.20;;;16.60;99.90;;;;;;4964540;28;20050;-80
2021/08/12 06:09:45;;;;;;;13.45;10.60;;;16.70;99.90;;;;;;4993683;28;20441;-81
2021/08/12 06:12:12;;;;;;;13.82;10.07;;;16.80;99.90;;;;;;5009167;28;20046;-81
2021/08/12 06:14:39;;;;;;;13.15;10.23;;;16.90;99.90;;;;;;4998955;28;20429;-80
2021/08/12 06:17:08;;;;;;;15.35;9.82;;;17.00;99.90;;;;;;5010953;28;20041;-80
2021/08/12 06:19:38;;;;;;;12.85;10.38;;;17.20;99.90;;;;;;5003875;28;20050;-80
2021/08/12 06:22:06;;;;;;;13.70;10.23;;;17.30;99.90;;;;;;5022558;28;20203;-81
2021/08/12 06:24:34;;;;;;;14.30;10.10;;;17.50;99.90;;;;;;4990599;28;20498;-80
2021/08/12 06:27:01;;;;;;;14.43;9.63;;;17.60;99.90;;;;;;4995692;28;20275;-79
2021/08/12 06:29:28;;;;;;;11.45;9.32;;;17.90;99.90;;;;;;4970207;28;20046;-80
2021/08/12 06:31:56;;;;;;;12.73;9.80;;;18.00;99.90;;;;;;4970924;28;20046;-80
2021/08/12 06:34:23;;;;;;;13.02;9.80;;;18.20;99.90;;;;;;4966557;28;20488;-80
2021/08/12 06:36:50;;;;;;;16.88;9.35;;;18.20;99.90;;;;;;5004851;28;20076;-80
2021/08/12 06:39:19;;;;;;;11.60;9.93;;;18.20;99.90;;;;;;5009597;28;20053;-80
2021/08/12 06:41:47;;;;;;;11.23;8.75;;;18.30;99.90;;;;;;4993713;28;20463;-79
2021/08/12 06:44:17;;;;;;;11.95;9.02;;;18.20;99.90;;;;;;4992955;28;20072;-80
2021/08/12 06:46:45;;;;;;;9.38;8.38;;;18.40;99.90;;;;;;4995506;28;20041;-80
2021/08/12 06:49:13;;;;;;;10.13;9.10;;;18.80;99.90;;;;;;4990178;28;20042;-80
2021/08/12 06:51:44;;;;;;;13.50;9.30;;;19.20;99.90;;;;;;4990333;28;20060;-80
2021/08/12 06:54:11;;;;;;;10.38;9.27;;;19.60;99.90;;;;;;4990593;28;20038;-80
2021/08/12 06:56:39;;;;;;;11.93;9.23;;;19.70;99.90;;;;;;4977769;28;20419;-79
2021/08/12 06:59:07;;;;;;;12.10;10.90;;;20.00;99.90;;;;;;4990906;28;20552;-79
2021/08/12 07:01:34;;;;;;;11.98;10.07;;;20.20;99.90;;;;;;4990344;28;20325;-80
2021/08/12 07:04:02;;;;;;;11.27;10.18;;;20.60;99.90;;;;;;4989938;28;20053;-80
2021/08/12 07:06:31;;;;;;;12.27;10.88;;;20.80;99.90;;;;;;4986166;28;20576;-80
2021/08/12 07:08:58;;;;;;;12.25;11.05;;;21.10;99.90;;;;;;5006679;28;20054;-81
2021/08/12 07:11:25;;;;;;;12.20;11.00;;;21.50;99.90;;;;;;4987825;28;20226;-80
2021/08/12 07:13:52;;;;;;;16.42;12.63;;;21.80;99.90;;;;;;4987573;28;20108;-80
2021/08/12 07:16:19;;;;;;;13.45;12.15;;;21.80;99.90;;;;;;5013817;28;20046;-80
2021/08/12 07:18:50;;;;;;;12.90;11.85;;;22.00;99.90;;;;;;4988730;28;20046;-80
2021/08/12 07:21:20;;;;;;;12.55;11.52;;;22.30;99.90;;;;;;4989334;28;20061;-80
2021/08/12 07:23:49;;;;;;;15.25;11.93;;;22.30;99.90;;;;;;4974538;28;20588;-81
2021/08/12 07:26:17;;;;;;;12.73;11.77;;;22.60;99.90;;;;;;4963434;28;20522;-80
2021/08/12 07:28:46;;;;;;;13.05;11.90;;;22.70;99.90;;;;;;4955353;28;20101;-80
2021/08/12 07:31:15;;;;;;;19.75;13.75;;;22.50;99.90;;;;;;4962778;28;20437;-80
2021/08/12 07:33:44;;;;;;;13.98;12.57;;;22.50;99.90;;;;;;5004272;28;20139;-79
2021/08/12 07:36:12;;;;;;;15.02;13.00;;;22.70;99.90;;;;;;4978007;28;20341;-79
2021/08/12 07:38:38;;;;;;;13.73;12.50;;;23.10;99.90;;;;;;4976759;28;20116;-79
2021/08/12 07:41:06;;;;;;;13.60;12.45;;;23.50;99.90;;;;;;4989365;28;20491;-81
2021/08/12 07:43:33;;;;;;;13.65;12.63;;;23.60;99.90;;;;;;4989311;28;20061;-80
2021/08/12 07:46:00;;;;;;;14.57;13.35;;;23.60;99.90;;;;;;5004429;28;20405;-80
2021/08/12 07:48:27;;;;;;;14.00;12.82;;;23.60;99.90;;;;;;5007593;28;20062;-80
2021/08/12 07:50:54;;;;;;;13.30;12.20;;;23.90;99.90;;;;;;4990347;28;20474;-80
2021/08/12 07:53:21;;;;;;;13.77;12.73;;;24.00;99.90;;;;;;5004639;28;20049;-81
2021/08/12 07:55:48;;;;;;;13.45;12.50;;;23.90;99.90;;;;;;5019734;28;20100;-80
2021/08/12 07:58:16;;;;;;;13.80;12.80;;;23.80;99.90;;;;;;5037008;28;20109;-80
2021/08/12 08:00:42;;;;;;;14.30;13.15;;;24.00;99.90;;;;;;5008448;28;20041;-79
2021/08/12 08:03:09;;;;;;;14.20;13.13;;;24.20;99.90;;;;;;5024580;28;20156;-80
2021/08/12 08:05:36;;;;;;;13.57;12.40;;;24.10;99.90;;;;;;4996857;28;20033;-79
2021/08/12 08:08:04;;;;;;;14.10;13.00;;;24.10;99.90;;;;;;5004512;28;20116;-80
2021/08/12 08:10:30;;;;;;;12.38;11.48;;;23.90;99.90;;;;;;5006306;28;20065;-80
2021/08/12 08:12:57;;;;;;;13.18;12.18;;;23.70;99.90;;;;;;4991804;28;20050;-78
2021/08/12 08:15:24;;;;;;;13.20;12.20;;;23.90;99.90;;;;;;5021669;28;20064;-77
2021/08/12 08:18:01;;;;;;;14.02;12.88;;;24.20;99.90;;;;;;4983447;28;20056;-78
2021/08/12 08:20:29;;;;;;;16.05;12.77;;;24.10;99.90;;;;;;4987974;28;20093;-78
2021/08/12 08:23:15;;;;;;;14.13;12.88;;;24.10;99.90;;;;;;5007542;28;20498;-78
2021/08/12 08:25:42;;;;;;;13.68;12.57;;;24.50;99.90;;;;;;5022103;28;20075;-77
2021/08/12 08:28:09;;;;;;;13.88;12.85;;;24.60;99.90;;;;;;5001830;28;20465;-77
2021/08/12 08:30:37;;;;;;;13.95;12.65;;;24.80;99.90;;;;;;5029583;28;20068;-78
2021/08/12 08:33:06;;;;;;;13.77;12.73;;;25.10;99.90;;;;;;4989653;28;20077;-78
2021/08/12 08:35:34;;;;;;;13.98;12.85;;;25.00;99.90;;;;;;5014146;28;20037;-77
2021/08/12 08:38:02;;;;;;;14.65;13.35;;;24.90;99.90;;;;;;4991017;28;20492;-78
2021/08/12 08:40:29;;;;;;;14.02;12.93;;;25.10;99.90;;;;;;5005670;28;20050;-77
2021/08/12 08:42:57;;;;;;;15.02;13.80;;;25.20;99.90;;;;;;5008538;28;20141;-78
2021/08/12 08:45:28;;;;;;;14.43;13.32;;;25.50;99.90;;;;;;4982630;28;20092;-78
2021/08/12 08:47:57;;;;;;;12.57;11.70;;;25.60;99.90;;;;;;4980723;28;20058;-78
2021/08/12 08:50:26;;;;;;;13.35;12.35;;;26.00;99.90;;;;;;5009112;28;20042;-78
2021/08/12 08:52:53;;;;;;;13.30;12.20;;;26.00;99.90;;;;;;4992393;28;20049;-79
2021/08/12 08:55:22;;;;;;;13.40;12.20;;;26.30;99.90;;;;;;4973798;28;20050;-79
2021/08/12 08:57:56;;;;;;;13.75;12.65;;;26.60;99.90;;;;;;4993544;28;20045;-77
2021/08/12 09:00:24;;;;;;;12.68;11.57;;;26.70;99.90;;;;;;5009911;28;20057;-79
2021/08/12 09:02:53;;;;;;;13.20;12.27;;;26.90;99.90;;;;;;5009871;28;20078;-78
2021/08/12 09:05:21;;;;;;;13.25;12.32;;;27.10;99.90;;;;;;4990632;28;20103;-80
2021/08/12 09:07:51;;;;;;;13.15;12.10;;;27.30;99.90;;;;;;4993410;28;20049;-79
2021/08/12 09:10:20;;;;;;;12.85;11.95;;;27.30;99.90;;;;;;4979863;28;20070;-79
2021/08/12 09:12:48;;;;;;;12.90;11.95;;;27.10;99.90;;;;;;5009924;28;20060;-78
2021/08/12 09:15:21;;;;;;;13.48;12.73;;;26.80;99.90;;;;;;5016297;28;20342;-79
2021/08/12 09:17:50;;;;;;;12.60;11.80;;;26.70;99.90;;;;;;4975725;28;20046;-79
2021/08/12 09:20:26;;;;;;;13.40;12.50;;;26.60;99.90;;;;;;5000257;28;20313;-79
2021/08/12 09:23:12;;;;;;;13.45;12.57;;;26.70;99.90;;;;;;4975378;28;20050;-79
2021/08/12 09:25:42;;;;;;;13.02;12.13;;;26.90;99.90;;;;;;5007732;28;20057;-79
2021/08/12 09:28:13;;;;;;;12.73;11.80;;;27.20;99.90;;;;;;5011278;28;20438;-78
2021/08/12 09:30:43;;;;;;;12.50;11.70;;;27.20;99.90;;;;;;5013046;28;20394;-77
2021/08/12 09:33:15;;;;;;;12.23;11.43;;;27.00;99.90;;;;;;5006328;28;20052;-78
2021/08/12 09:35:42;;;;;;;12.13;11.23;;;27.00;99.90;;;;;;5008132;28;20060;-78
2021/08/12 09:38:14;;;;;;;13.20;12.35;;;27.00;99.90;;;;;;5009494;28;20104;-79
2021/08/12 09:40:43;;;;;;;13.50;12.35;;;26.80;99.90;;;;;;5003168;28;20052;-78
2021/08/12 09:43:10;;;;;;;13.68;12.60;;;26.90;99.90;;;;;;4990758;28;20088;-79
2021/08/12 09:45:40;;;;;;;14.38;13.38;;;27.10;99.90;;;;;;5017338;28;20065;-78
2021/08/12 09:48:19;;;;;;;13.15;12.15;;;27.30;99.90;;;;;;5000632;28;20065;-79
2021/08/12 09:51:09;;;;;;;13.90;12.95;;;27.40;99.90;;;;;;5011952;28;20494;-78
2021/08/12 09:53:36;;;;;;;13.63;12.50;;;27.40;99.90;;;;;;5006457;28;20073;-79
2021/08/12 09:56:11;;;;;;;14.13;13.02;;;27.10;99.90;;;;;;5037264;28;20140;-79
2021/08/12 09:58:38;;;;;;;;;;;26.90;99.90;;;;;;5039493;28;20049;-79
2021/08/12 10:01:17;;;;;;;13.77;12.52;;;26.80;99.90;;;;;;4983546;28;19932;-79
2021/08/12 10:03:46;;;;;;;13.10;12.23;;;26.40;99.90;;;;;;4955035;28;20046;-79
2021/08/12 10:06:20;;;;;;;12.88;11.98;;;26.20;99.90;;;;;;4969067;28;20390;-78
2021/08/12 10:08:48;;;;;;;13.33;12.43;;;26.40;99.90;;;;;;4986918;28;20081;-79
2021/08/12 10:11:28;;;;;;;13.32;12.43;;;26.70;99.90;;;;;;4989025;28;20369;-79
2021/08/12 10:14:00;;;;;;;13.95;12.93;;;26.70;99.90;;;;;;5021915;28;20049;-78
2021/08/12 10:16:30;;;;;;;13.30;12.48;;;26.70;99.90;;;;;;5029148;28;20045;-78
2021/08/12 10:18:59;;;;;;;14.98;13.70;;;26.60;99.90;;;;;;4974611;28;20057;-79
2021/08/12 10:21:27;;;;;;;15.48;14.18;;;26.50;99.90;;;;;;5005870;28;20069;-79
2021/08/12 10:23:59;;;;;;;13.80;12.80;;;26.50;99.90;;;;;;5008023;28;20069;-79
2021/08/12 10:26:29;;;;;;;13.65;12.55;;;26.50;99.90;;;;;;4975003;28;20189;-78
2021/08/12 10:29:01;;;;;;;13.40;12.60;;;26.60;99.90;;;;;;5007589;28;20053;-79
2021/08/12 10:31:30;;;;;;;14.10;13.10;;;26.80;99.90;;;;;;4993687;28;20096;-79
2021/08/12 10:33:57;;;;;;;13.65;12.70;;;27.10;99.90;;;;;;4995248;28;20129;-79
2021/08/12 10:36:25;;;;;;;13.98;12.95;;;26.80;99.90;;;;;;5007997;28;20038;-79
2021/08/12 10:38:53;;;;;;;13.93;12.95;;;26.70;99.90;;;;;;4992676;28;20053;-79
2021/08/12 10:41:20;;;;;;;14.70;13.38;;;27.00;99.90;;;;;;4991073;28;20061;-79
2021/08/12 10:43:53;;;;;;;14.23;13.32;;;27.20;99.90;;;;;;4992611;28;20044;-82
2021/08/12 10:46:35;;;;;;;15.60;14.50;;;27.40;99.90;;;;;;5020013;28;20054;-76
2021/08/12 10:49:31;;;;;;;13.90;12.88;;;27.30;99.90;;;;;;5018276;28;20038;-76
2021/08/12 10:52:09;;;;;;;13.80;12.90;;;27.50;99.90;;;;;;5005715;28;20050;-76
2021/08/12 10:54:41;;;;;;;13.52;12.50;;;27.30;99.90;;;;;;5039916;23;20046;-76
2021/08/12 10:57:14;;;;;;;15.25;14.00;;;27.30;99.90;;;;;;4992998;28;20050;-79
2021/08/12 10:59:43;;;;;;;13.90;13.07;;;27.50;99.90;;;;;;5005146;28;20042;-76
2021/08/12 11:02:28;;;;;;;13.80;12.75;;;27.60;99.90;;;;;;5003942;28;20541;-76
2021/08/12 11:04:57;;;;;;;14.20;13.25;;;27.80;99.90;;;;;;5007495;28;20060;-76
2021/08/12 11:07:39;;;;;;;13.93;12.82;;;27.70;99.90;;;;;;5016931;28;20337;-76
2021/08/12 11:10:14;;;;;;;14.77;13.77;;;27.80;99.90;;;;;;5005331;28;20085;-75
2021/08/12 11:13:00;;;;;;;13.38;12.38;;;27.80;99.90;;;;;;5004714;28;20046;-77
2021/08/12 11:15:39;;;;;;;14.02;12.93;;;27.90;99.90;;;;;;4991943;28;20037;-75
2021/08/12 11:18:08;;;;;;;15.32;14.02;;;28.00;99.90;;;;;;4988449;28;20502;-75
2021/08/12 11:20:40;;;;;;;14.35;13.20;;;28.10;99.90;;;;;;5002608;28;20068;-76
2021/08/12 11:23:19;;;;;;;14.02;12.85;;;27.70;99.90;;;;;;4988264;28;20049;-75
2021/08/12 11:25:56;;;;;;;15.05;13.85;;;27.50;99.90;;;;;;4973339;28;20052;-75
2021/08/12 11:28:41;;;;;;;14.80;13.70;;;27.60;99.90;;;;;;5024052;28;20226;-75
2021/08/12 11:31:08;;;;;;;;;;;27.30;99.90;;;;;;5025027;28;20633;-76
2021/08/12 11:33:45;;;;;;;14.65;13.13;;;27.40;99.90;;;;;;5001854;28;19922;-76
2021/08/12 11:36:18;;;;;;;14.05;13.05;;;27.50;99.90;;;;;;5021558;28;20074;-75
2021/08/12 11:38:53;;;;;;;14.55;13.25;;;27.60;99.90;;;;;;5006112;28;20116;-77
2021/08/12 11:41:21;;;;;;;15.05;13.80;;;27.70;99.90;;;;;;5004007;28;20054;-77
2021/08/12 11:43:50;;;;;;;14.73;13.77;;;27.70;99.90;;;;;;5006061;28;20100;-77
2021/08/12 11:46:17;;;;;;;14.15;13.25;;;27.80;99.90;;;;;;4999594;28;20042;-74
2021/08/12 11:48:46;;;;;;;14.93;13.55;;;27.70;99.90;;;;;;4982912;28;20034;-76
2021/08/12 11:51:13;;;;;;;15.00;13.70;;;27.80;99.90;;;;;;4991477;28;20182;-77
2021/08/12 11:53:41;;;;;;;13.88;12.80;;;27.90;99.90;;;;;;4992401;28;20057;-76
2021/08/12 11:56:17;;;;;;;15.60;14.27;;;27.70;99.90;;;;;;5006924;28;20508;-74
2021/08/12 11:58:47;;;;;;;15.00;13.90;;;27.70;99.90;;;;;;4991192;28;20050;-76
2021/08/12 12:01:33;;;;;;;14.02;13.23;;;27.70;99.90;;;;;;5041250;28;20073;-77
2021/08/12 12:04:05;;;;;;;13.98;12.85;;;27.90;99.90;;;;;;5024016;28;20653;-77
2021/08/12 12:06:39;;;;;;;13.57;12.57;;;27.80;99.90;;;;;;5026736;28;20523;-78
2021/08/12 12:09:18;;;;;;;14.13;13.20;;;28.00;99.90;;;;;;5028437;28;20266;-77
2021/08/12 12:11:49;;;;;;;13.68;12.63;;;28.10;99.90;;;;;;5027643;28;20083;-76
2021/08/12 12:14:42;;;;;;;13.88;13.00;;;28.00;99.90;;;;;;5021387;28;20042;-76
2021/08/12 12:17:10;;;;;;;14.30;13.18;;;27.80;99.90;;;;;;5010832;28;20081;-78
2021/08/12 12:20:14;;;;;;;14.43;13.45;;;27.70;99.90;;;;;;5004008;28;20061;-79
2021/08/12 12:22:54;;;;;;;14.05;12.95;;;27.90;99.90;;;;;;4965736;28;20517;-79
2021/08/12 12:25:21;;;;;;;14.23;13.23;;;28.00;99.90;;;;;;4992758;28;20103;-77
2021/08/12 12:27:48;;;;;;;14.25;13.15;;;28.10;99.90;;;;;;5007011;28;20054;-78
2021/08/12 12:30:17;;;;;;;15.50;14.20;;;28.30;99.90;;;;;;5006221;28;20115;-77
2021/08/12 12:32:58;;;;;;;14.68;13.52;;;28.10;99.90;;;;;;5006237;28;20268;-77
2021/08/12 12:35:26;;;;;;;13.57;12.77;;;28.20;99.90;;;;;;4970589;28;20057;-77
2021/08/12 12:37:53;;;;;;;14.88;13.68;;;28.40;99.90;;;;;;5023011;28;20470;-76
2021/08/12 12:40:22;;;;;;;13.48;12.68;;;28.60;99.90;;;;;;5020720;28;20053;-76
2021/08/12 12:42:53;;;;;;;15.23;13.32;;;28.60;99.90;;;;;;5004538;28;20042;-76